Terminal Aerodrome Forecast
Issued by NWS San Angelo, TX

Current Version | Previous Version | Text Only | Print | Product List | Glossary Off
Versions: 1 2 3 4 5 6 7 8 9 10 11 12 13 14 15 16

000
FTUS44 KSJT 031100
TAFABI
TAF
KABI 031123Z 0312/0412 17008KT P6SM BKN200
     FM031700 20012G18KT P6SM FEW060 SCT250
     FM040100 16007KT P6SM SCT250=

USA.gov is the U.S. government's official web portal to all federal, state and local government web resources and services.